Time;durP1;ratioP1;P1;durP2;ratioP2;P2;SDS_P1;SDS_P2;PMS_P1;PMS_P2;Temp;Humidity;BMP_temperature;BMP_pressure;BME280_temperature;BME280_humidity;BME280_pressure;Samples;Min_cycle;Max_cycle;Signal;HPM_P1;HPM_P2
2021/12/04 00:01:10;;;;;;;331.65;180.82;;;;;;;5.20;46.58;99775.72;4375355;32;20620;-78
2021/12/04 00:03:39;;;;;;;332.08;183.18;;;;;;;4.85;47.34;99762.47;4374453;32;20278;-79
2021/12/04 00:06:13;;;;;;;342.00;186.93;;;;;;;4.92;47.52;99767.03;4368374;32;20286;-78
2021/12/04 00:08:45;;;;;;;357.60;196.70;;;;;;;4.52;48.08;99757.81;4366901;32;20433;-80
2021/12/04 00:11:12;;;;;;;430.67;213.43;;;;;;;4.73;48.02;99757.78;4372659;32;20277;-78
2021/12/04 00:13:41;;;;;;;434.97;215.37;;;;;;;4.94;47.23;99752.56;4371430;32;20801;-78
2021/12/04 00:16:09;;;;;;;468.80;217.45;;;;;;;4.93;47.32;99745.69;4376440;32;20299;-78
2021/12/04 00:18:36;;;;;;;457.73;217.80;;;;;;;4.73;47.81;99744.09;4381480;32;20277;-79
2021/12/04 00:21:03;;;;;;;373.20;205.27;;;;;;;4.65;47.70;99744.66;4378304;32;20352;-79
2021/12/04 00:23:30;;;;;;;351.95;193.85;;;;;;;4.75;47.47;99739.88;4372444;32;20325;-79
2021/12/04 00:25:57;;;;;;;362.23;200.10;;;;;;;4.94;47.04;99737.19;4368169;32;20329;-79
2021/12/04 00:28:24;;;;;;;364.02;199.18;;;;;;;4.74;47.92;99739.00;4367697;32;20283;-78
2021/12/04 00:30:54;;;;;;;355.77;195.75;;;;;;;4.81;47.76;99734.97;4374422;32;20737;-79
2021/12/04 00:33:28;;;;;;;362.55;200.13;;;;;;;4.79;47.67;99731.50;4356204;32;20287;-78
2021/12/04 00:36:01;;;;;;;340.08;186.48;;;;;;;4.82;47.09;99731.63;4375777;32;20275;-78
2021/12/04 00:49:31;;;;;;;25.75;20.00;;;;;;;4.18;48.33;99730.91;4367971;32;20623;-79
2021/12/04 00:51:58;;;;;;;25.42;20.00;;;;;;;4.06;48.55;99730.41;4367968;32;20163;-79
2021/12/04 00:54:26;;;;;;;25.62;18.70;;;;;;;4.11;48.20;99726.31;4354308;32;20196;-77
2021/12/04 00:56:53;;;;;;;24.83;18.37;;;;;;;3.56;49.90;99734.31;4367906;32;20158;-77
2021/12/04 00:59:20;;;;;;;27.08;18.30;;;;;;;3.54;50.29;99738.47;4367582;32;20352;-77
2021/12/04 01:01:48;;;;;;;25.35;18.23;;;;;;;3.32;51.01;99735.81;4366463;32;20212;-76
2021/12/04 01:04:18;;;;;;;24.25;17.75;;;;;;;3.80;49.60;99736.13;4364848;32;20290;-78
2021/12/04 01:06:45;;;;;;;23.05;16.92;;;;;;;3.42;50.34;99735.41;4356059;32;20522;-78
2021/12/04 01:09:13;;;;;;;22.40;14.80;;;;;;;3.35;50.41;99741.06;4364212;32;20556;-78
2021/12/04 01:11:41;;;;;;;21.20;15.23;;;;;;;3.47;49.88;99736.47;4340939;32;20634;-79
2021/12/04 01:14:10;;;;;;;20.90;15.27;;;;;;;3.10;50.87;99727.22;4354596;32;20166;-78
2021/12/04 01:16:37;;;;;;;21.25;14.52;;;;;;;3.13;50.47;99729.91;4353225;32;20501;-78
2021/12/04 01:19:04;;;;;;;21.45;14.90;;;;;;;2.79;51.43;99733.53;4359914;32;20778;-79
2021/12/04 01:21:31;;;;;;;21.87;15.05;;;;;;;2.96;51.54;99733.41;4356893;32;20290;-79
2021/12/04 01:23:58;;;;;;;20.75;15.32;;;;;;;2.72;52.04;99740.84;4354662;32;20283;-77
2021/12/04 01:26:26;;;;;;;24.05;15.32;;;;;;;2.66;52.07;99728.66;4354653;32;20283;-78
2021/12/04 01:28:53;;;;;;;23.05;15.48;;;;;;;3.00;51.04;99727.63;4362137;32;20339;-77
2021/12/04 01:31:20;;;;;;;22.87;15.57;;;;;;;3.42;50.07;99732.88;4354248;32;20146;-78
2021/12/04 01:33:47;;;;;;;23.00;16.23;;;;;;;3.13;50.85;99729.91;4353050;32;20285;-78
2021/12/04 01:36:15;;;;;;;21.70;16.12;;;;;;;3.19;50.66;99730.19;4359835;32;20287;-78
2021/12/04 01:38:42;;;;;;;21.52;15.27;;;;;;;3.18;50.38;99728.41;4356421;32;20280;-77
2021/12/04 01:41:09;;;;;;;21.35;15.70;;;;;;;3.05;50.50;99720.16;4354507;32;20339;-78
2021/12/04 01:43:36;;;;;;;23.25;15.27;;;;;;;3.42;49.84;99722.62;4356436;32;20289;-78
2021/12/04 01:46:03;;;;;;;21.25;15.55;;;;;;;3.23;50.37;99716.72;4363900;32;20221;-78
2021/12/04 01:48:30;;;;;;;22.70;15.48;;;;;;;3.35;49.92;99730.81;4355655;32;20185;-78
2021/12/04 01:50:58;;;;;;;20.65;16.12;;;;;;;3.12;50.54;99723.03;4354269;32;20185;-77
2021/12/04 01:53:26;;;;;;;22.15;16.48;;;;;;;2.69;51.72;99731.34;4353424;32;20201;-78
2021/12/04 01:55:57;;;;;;;20.35;15.88;;;;;;;2.58;51.89;99721.44;4359459;32;20279;-78
2021/12/04 01:58:25;;;;;;;21.77;15.38;;;;;;;2.79;51.41;99723.28;4357574;32;20185;-77
2021/12/04 02:00:53;;;;;;;21.45;15.40;;;;;;;2.82;51.29;99711.47;4356150;32;20366;-78
2021/12/04 02:03:21;;;;;;;19.08;14.80;;;;;;;2.45;51.99;99715.75;4359932;32;20302;-77
2021/12/04 02:05:49;;;;;;;20.93;15.53;;;;;;;2.43;52.53;99716.53;4354403;32;20239;-78
2021/12/04 02:08:21;;;;;;;22.02;14.80;;;;;;;2.89;51.27;99703.25;4341035;32;20165;-78
2021/12/04 02:10:50;;;;;;;20.87;15.10;;;;;;;2.55;51.72;99706.84;4354736;32;20173;-78
2021/12/04 02:13:17;;;;;;;19.58;14.87;;;;;;;2.56;51.71;99708.62;4355830;32;20356;-76
2021/12/04 02:15:45;;;;;;;21.08;15.15;;;;;;;3.12;50.43;99702.56;4360740;32;20282;-78
2021/12/04 02:18:13;;;;;;;20.12;15.38;;;;;;;2.94;50.56;99697.56;4355153;32;20166;-79
2021/12/04 02:20:41;;;;;;;19.42;14.30;;;;;;;2.83;51.11;99692.75;4361332;32;20197;-78
2021/12/04 02:23:09;;;;;;;19.80;14.70;;;;;;;2.74;50.96;99691.56;4354444;32;20403;-77
2021/12/04 02:25:37;;;;;;;22.98;15.30;;;;;;;2.59;51.28;99688.31;4352792;32;20327;-77
2021/12/04 02:28:06;;;;;;;19.83;14.02;;;;;;;2.81;50.28;99685.03;4362197;32;20280;-78
2021/12/04 02:30:36;;;;;;;19.83;14.90;;;;;;;2.64;51.27;99676.59;4341003;32;20316;-78
2021/12/04 02:33:11;;;;;;;19.80;14.87;;;;;;;2.73;50.86;99682.13;4354235;32;20288;-78
2021/12/04 02:35:46;;;;;;;17.55;13.85;;;;;;;2.60;51.19;99682.38;4361194;32;20278;-78
2021/12/04 02:38:14;;;;;;;19.50;14.27;;;;;;;2.72;50.81;99684.62;4353627;32;20288;-77
2021/12/04 02:40:43;;;;;;;17.50;13.65;;;;;;;2.64;50.81;99681.72;4340505;32;20327;-77
2021/12/04 02:43:11;;;;;;;17.08;13.27;;;;;;;2.62;50.42;99683.34;4357127;32;20648;-77
2021/12/04 02:45:38;;;;;;;19.55;13.80;;;;;;;2.68;50.66;99677.59;4357698;32;20336;-78
2021/12/04 02:48:06;;;;;;;19.83;14.05;;;;;;;2.77;50.21;99668.66;4358353;32;20607;-77
2021/12/04 02:50:33;;;;;;;17.58;14.07;;;;;;;2.44;50.73;99664.63;4356093;32;20363;-78
2021/12/04 02:53:00;;;;;;;18.50;13.93;;;;;;;2.41;50.87;99672.16;4358761;32;20714;-77
2021/12/04 02:55:27;;;;;;;18.48;14.13;;;;;;;2.51;50.72;99679.41;4353980;32;20796;-78
2021/12/04 02:57:54;;;;;;;18.90;13.27;;;;;;;2.39;51.33;99673.75;4353936;32;20233;-79
2021/12/04 03:00:25;;;;;;;19.62;13.85;;;;;;;2.30;51.77;99674.22;4362602;32;20539;-79
2021/12/04 03:02:56;;;;;;;19.02;14.48;;;;;;;2.31;50.93;99674.28;4352476;32;20289;-80
2021/12/04 03:05:27;;;;;;;18.73;13.75;;;;;;;2.36;50.75;99678.72;4340728;32;20232;-77
2021/12/04 03:07:56;;;;;;;16.70;13.32;;;;;;;2.08;51.43;99680.00;4361428;32;20168;-79
2021/12/04 03:10:24;;;;;;;19.00;13.80;;;;;;;2.23;51.30;99683.25;4354407;32;20252;-80
2021/12/04 03:12:51;;;;;;;19.08;13.95;;;;;;;2.62;50.03;99679.91;4352543;32;20648;-79
2021/12/04 03:15:20;;;;;;;21.23;14.60;;;;;;;2.20;50.75;99667.81;4357383;32;20181;-78
2021/12/04 03:17:48;;;;;;;19.55;14.90;;;;;;;2.08;51.40;99677.44;4357324;32;20336;-79
2021/12/04 03:20:15;;;;;;;19.05;14.13;;;;;;;2.31;51.11;99681.94;4353748;32;20351;-79
2021/12/04 03:22:44;;;;;;;17.37;13.48;;;;;;;2.44;50.03;99672.28;4354277;32;20291;-78
2021/12/04 03:25:14;;;;;;;18.98;13.85;;;;;;;2.48;50.19;99674.16;4362101;32;20348;-79
2021/12/04 03:27:47;;;;;;;18.73;14.20;;;;;;;2.09;50.76;99674.09;4352961;32;20283;-79
2021/12/04 03:41:19;;;;;;;19.30;13.62;;;;;;;2.40;50.26;99639.75;4362229;32;20187;-79
2021/12/04 03:43:47;;;;;;;18.62;14.07;;;;;;;2.36;49.92;99622.53;4358153;32;20190;-79
2021/12/04 03:46:15;;;;;;;16.10;12.25;;;;;;;2.14;50.53;99616.47;4363425;32;20286;-78
2021/12/04 03:51:10;;;;;;;18.27;13.25;;;;;;;1.82;51.94;99618.38;4368303;32;20275;-79
2021/12/04 03:53:37;;;;;;;18.45;13.62;;;;;;;2.10;50.72;99609.44;4359493;32;20716;-79
2021/12/04 03:56:05;;;;;;;16.55;13.02;;;;;;;2.19;50.25;99609.88;4368778;32;20291;-79
2021/12/04 03:58:32;;;;;;;16.45;12.68;;;;;;;2.21;50.11;99613.37;4354889;32;20648;-79
2021/12/04 04:00:59;;;;;;;16.90;12.88;;;;;;;1.80;51.34;99608.91;4370610;32;20275;-78
2021/12/04 04:03:27;;;;;;;15.75;12.48;;;;;;;1.79;51.55;99605.50;4374729;32;20291;-79
2021/12/04 04:05:55;;;;;;;20.37;14.40;;;;;;;1.73;51.13;99607.75;4374992;32;20352;-79
2021/12/04 04:08:22;;;;;;;19.98;14.00;;;;;;;1.65;51.57;99609.03;4369166;32;20294;-78
2021/12/04 04:10:53;;;;;;;19.60;13.80;;;;;;;1.99;51.09;99608.09;4371571;32;20269;-80
2021/12/04 04:13:21;;;;;;;21.35;14.60;;;;;;;2.09;50.56;99605.16;4372130;32;20301;-80
2021/12/04 04:15:48;;;;;;;20.80;14.52;;;;;;;2.07;50.92;99609.31;4368424;32;20343;-79
2021/12/04 04:18:16;;;;;;;22.25;15.07;;;;;;;1.98;50.48;99598.66;4373028;32;20652;-79
2021/12/04 04:20:43;;;;;;;21.52;15.07;;;;;;;1.84;50.94;99596.34;4377253;32;20273;-77
2021/12/04 04:23:10;;;;;;;23.93;16.20;;;;;;;2.11;50.29;99595.91;4369487;32;20318;-79
2021/12/04 04:25:37;;;;;;;22.52;15.82;;;;;;;1.79;51.15;99597.84;4371167;32;20274;-78
2021/12/04 04:28:04;;;;;;;22.90;16.45;;;;;;;1.67;51.16;99597.25;4374023;32;20329;-80
2021/12/04 04:30:33;;;;;;;24.92;17.23;;;;;;;1.90;50.38;99605.97;4368433;32;20317;-79
2021/12/04 04:33:04;;;;;;;28.10;19.02;;;;;;;1.72;51.22;99605.97;4368147;32;20286;-79
2021/12/04 04:35:32;;;;;;;26.05;18.30;;;;;;;1.64;51.48;99612.41;4372422;32;20323;-79
2021/12/04 04:39:11;;;;;;;25.12;17.20;;;;;;;1.80;50.98;99608.91;4372129;32;20287;-79
2021/12/04 05:13:06;;;;;;;22.85;16.50;;;;;;;1.68;51.52;99614.28;4367798;32;20341;-79
2021/12/04 05:20:40;;;;;;;23.75;16.77;;;;;;;1.66;51.16;99609.91;4369783;32;20292;-79
2021/12/04 05:23:10;;;;;;;24.30;17.52;;;;;;;1.31;52.16;99597.25;4367409;32;20289;-79
2021/12/04 05:25:37;;;;;;;23.20;17.07;;;;;;;1.72;51.14;99600.88;4366152;32;20711;-78
2021/12/04 05:28:05;;;;;;;22.35;16.23;;;;;;;1.93;50.84;99590.81;4373824;32;20642;-79
2021/12/04 05:30:32;;;;;;;22.48;16.55;;;;;;;1.72;50.88;99585.56;4354054;32;20344;-78
2021/12/04 05:32:59;;;;;;;20.50;15.83;;;;;;;1.68;50.83;99599.00;4354651;32;20601;-78
2021/12/04 05:35:27;;;;;;;19.42;15.18;;;;;;;1.81;50.72;99601.31;4373908;32;20295;-77
2021/12/04 05:37:54;;;;;;;19.65;15.32;;;;;;;1.54;51.52;99595.78;4367187;32;20270;-77
2021/12/04 05:40:21;;;;;;;19.23;15.38;;;;;;;1.72;50.99;99600.88;4367550;32;20774;-78
2021/12/04 05:42:48;;;;;;;20.80;17.33;;;;;;;1.59;51.07;99603.66;4370565;32;20271;-78
2021/12/04 05:45:24;;;;;;;21.52;16.15;;;;;;;1.78;50.34;99596.06;4372449;32;20294;-78
2021/12/04 05:48:40;;;;;;;20.88;15.55;;;;;;;1.85;50.33;99585.38;4363546;32;20284;-78
2021/12/04 05:55:55;;;;;;;20.55;16.52;;;;;;;1.57;51.18;99595.06;4369586;32;20313;-79
2021/12/04 05:58:25;;;;;;;20.60;16.87;;;;;;;1.43;51.87;99596.94;4370956;32;20306;-78
2021/12/04 06:00:55;;;;;;;21.43;17.63;;;;;;;1.74;50.70;99599.28;4358537;32;20381;-78
2021/12/04 06:03:24;;;;;;;24.13;18.23;;;;;;;1.75;50.53;99585.72;4374549;32;20350;-77
2021/12/04 06:05:51;;;;;;;24.10;19.20;;;;;;;1.43;51.37;99585.88;4369662;32;20753;-78
2021/12/04 06:08:19;;;;;;;25.20;18.67;;;;;;;1.52;51.41;99586.31;4375529;32;20274;-76
2021/12/04 06:10:48;;;;;;;23.80;18.50;;;;;;;1.69;51.10;99575.25;4372872;32;20382;-78
2021/12/04 06:13:16;;;;;;;24.67;18.52;;;;;;;1.60;50.80;99579.91;4374172;32;20391;-78
2021/12/04 06:15:43;;;;;;;24.55;18.33;;;;;;;1.47;50.92;99583.56;4369071;32;20306;-77
2021/12/04 06:18:11;;;;;;;24.00;18.12;;;;;;;1.51;51.23;99580.34;4377316;32;20318;-79
2021/12/04 06:23:23;;;;;;;24.27;18.55;;;;;;;1.39;51.02;99575.53;4377039;32;20631;-77
2021/12/04 06:25:50;;;;;;;22.52;17.75;;;;;;;1.49;51.11;99583.63;4371639;32;20634;-79
2021/12/04 06:28:17;;;;;;;25.80;17.67;;;;;;;1.58;50.73;99579.81;4361474;32;20287;-77
2021/12/04 06:30:45;;;;;;;21.67;18.17;;;;;;;1.72;50.43;99575.34;4355300;32;20668;-77
2021/12/04 06:33:15;;;;;;;24.48;18.98;;;;;;;1.63;50.25;99565.63;4375384;32;20322;-78
2021/12/04 06:35:42;;;;;;;23.12;17.87;;;;;;;1.37;51.13;99572.03;4367878;32;20299;-79
2021/12/04 06:38:11;;;;;;;24.87;18.55;;;;;;;2.06;50.08;99577.78;4369191;32;20305;-78
2021/12/04 06:40:39;;;;;;;28.77;20.67;;;;;;;1.61;51.43;99581.66;4367379;32;20316;-79
2021/12/04 06:43:06;;;;;;;30.17;20.62;;;;;;;1.87;50.37;99565.87;4383816;32;20285;-76
2021/12/04 06:45:36;;;;;;;47.53;29.08;;;;;;;1.56;51.60;99557.59;4367819;32;20286;-79
2021/12/04 06:48:11;;;;;;;46.03;25.40;;;;;;;1.41;51.77;99567.97;4373034;32;20290;-77
2021/12/04 06:53:19;;;;;;;55.17;21.37;;;;;;;1.51;52.23;99564.16;4384635;32;20581;-79
2021/12/04 06:55:50;;;;;;;30.48;19.80;;;;;;;1.73;51.36;99561.81;4379128;32;20289;-82
2021/12/04 06:58:17;;;;;;;39.42;23.75;;;;;;;1.95;50.61;99562.81;4378274;32;20281;-77
2021/12/04 07:00:44;;;;;;;52.88;32.33;;;;;;;1.87;51.37;99560.75;4378987;32;20274;-79
2021/12/04 07:03:16;;;;;;;66.68;42.80;;;;;;;2.10;51.12;99558.37;4375454;32;20285;-79
2021/12/04 07:05:43;;;;;;;68.62;43.05;;;;;;;2.46;50.22;99555.75;4368894;32;20275;-79
2021/12/04 07:08:10;;;;;;;73.50;45.35;;;;;;;2.89;49.27;99553.31;4377821;32;20631;-78
2021/12/04 07:10:37;;;;;;;59.00;40.20;;;;;;;2.64;50.26;99540.31;4351607;32;781574;-78
2021/12/04 07:13:05;;;;;;;64.25;43.65;;;;;;;2.80;50.10;99543.56;4367476;32;20321;-76
2021/12/04 07:15:32;;;;;;;55.10;38.50;;;;;;;2.60;50.77;99546.97;4368841;32;20278;-79
2021/12/04 07:18:01;;;;;;;41.85;30.55;;;;;;;2.69;50.42;99544.81;4368572;32;20297;-77
2021/12/04 07:20:29;;;;;;;45.30;30.15;;;;;;;3.14;49.41;99547.53;4382220;32;20412;-80
2021/12/04 07:22:56;;;;;;;41.55;28.25;;;;;;;2.90;50.20;99541.41;4378356;32;20315;-81
2021/12/04 07:25:23;;;;;;;70.18;39.88;;;;;;;3.28;49.67;99539.53;4382069;32;20343;-81
2021/12/04 07:27:50;;;;;;;58.60;35.47;;;;;;;3.32;49.46;99532.06;4383774;32;20296;-79
2021/12/04 07:30:18;;;;;;;131.73;65.20;;;;;;;3.37;49.25;99527.13;4386711;32;20301;-82
2021/12/04 07:32:46;;;;;;;150.90;67.30;;;;;;;3.22;49.75;99515.47;4385995;32;20276;-81
2021/12/04 07:35:13;;;;;;;434.80;164.53;;;;;;;3.49;49.13;99514.81;4383462;32;20370;-81
2021/12/04 07:37:41;;;;;;;282.73;112.15;;;;;;;3.41;49.44;99514.50;4374714;32;20289;-82
2021/12/04 07:40:09;;;;;;;218.23;87.07;;;;;;;3.53;49.21;99511.56;4378010;32;20305;-80
2021/12/04 07:42:37;;;;;;;71.85;36.13;;;;;;;3.61;49.08;99511.88;4381187;32;20324;-84
2021/12/04 07:45:06;;;;;;;81.93;40.08;;;;;;;4.31;47.85;99496.53;4386828;32;20336;-81
2021/12/04 07:47:33;;;;;;;63.28;32.80;;;;;;;3.87;48.76;99498.34;4363746;32;20313;-85
2021/12/04 07:50:01;;;;;;;57.03;32.65;;;;;;;3.93;49.03;99495.16;4379362;32;20360;-81
2021/12/04 07:52:28;;;;;;;53.47;32.80;;;;;;;4.20;49.16;99501.25;4383361;32;20335;-77
2021/12/04 07:54:55;;;;;;;45.95;28.67;;;;;;;4.23;49.03;99497.94;4391409;32;20304;-82
2021/12/04 07:57:23;;;;;;;120.53;66.07;;;;;;;4.40;48.65;99488.28;4376693;32;20358;-78
2021/12/04 07:59:49;;;;;;;135.77;73.33;;;;;;;4.61;48.13;99491.59;4372189;32;20308;-77
2021/12/04 08:02:16;;;;;;;104.97;59.70;;;;;;;5.17;46.36;99498.53;4378518;32;20282;-87
2021/12/04 08:04:45;;;;;;;61.30;36.38;;;;;;;5.00;47.17;99504.00;4377046;32;20658;-83
2021/12/04 08:07:12;;;;;;;62.45;37.75;;;;;;;5.33;46.79;99498.22;4385983;32;20314;-82
2021/12/04 08:09:38;;;;;;;98.90;56.25;;;;;;;5.71;45.54;99483.97;4383701;32;20353;-83
2021/12/04 08:12:07;;;;;;;78.03;44.67;;;;;;;5.83;45.45;99498.84;4381124;32;20734;-80
2021/12/04 08:14:34;;;;;;;60.28;38.38;;;;;;;6.28;45.03;99493.31;4386175;32;20343;-81
2021/12/04 08:17:00;;;;;;;54.77;33.83;;;;;;;5.90;45.37;99495.63;4386635;32;20350;-82
2021/12/04 08:19:28;;;;;;;53.83;34.60;;;;;;;5.83;46.20;99493.72;4391719;32;20279;-80
2021/12/04 08:21:55;;;;;;;48.55;30.77;;;;;;;6.24;45.81;99496.66;4384062;32;20269;-80
2021/12/04 08:24:23;;;;;;;46.60;31.50;;;;;;;5.96;45.76;99495.84;4368684;32;20275;-79
2021/12/04 08:26:50;;;;;;;47.90;30.13;;;;;;;6.07;45.51;99503.03;4395988;32;20280;-81
2021/12/04 08:29:17;;;;;;;41.80;26.87;;;;;;;6.06;46.48;99496.97;4398467;32;20337;-90
2021/12/04 08:31:47;;;;;;;42.17;27.57;;;;;;;6.44;45.83;99495.47;4376467;32;20279;-79
2021/12/04 08:34:14;;;;;;;35.65;25.65;;;;;;;6.23;45.22;99489.78;4374131;32;20269;-77
2021/12/04 08:36:42;;;;;;;35.78;26.92;;;;;;;6.30;44.91;99491.66;4370425;32;20286;-83
2021/12/04 08:39:08;;;;;;;39.05;28.10;;;;;;;6.57;44.72;99490.66;4374390;32;20286;-80
2021/12/04 08:41:36;;;;;;;35.10;24.37;;;;;;;6.51;46.75;99487.12;4378087;32;20564;-86
2021/12/04 08:44:04;;;;;;;33.95;23.10;;;;;;;6.32;46.93;99484.88;4382489;32;20336;-88
2021/12/04 08:46:34;;;;;;;26.97;20.13;;;;;;;6.77;46.05;99481.78;4379345;32;20857;-86
2021/12/04 08:49:02;;;;;;;27.10;18.92;;;;;;;6.61;45.93;99480.50;4382873;32;20323;-86
2021/12/04 08:51:32;;;;;;;24.30;17.80;;;;;;;6.86;44.60;99474.28;4383370;32;20285;-86
2021/12/04 08:53:59;;;;;;;24.45;17.98;;;;;;;6.92;44.40;99474.44;4391139;32;20716;-80
2021/12/04 08:56:26;;;;;;;23.92;18.92;;;;;;;6.62;45.33;99479.69;4378095;32;20276;-88
2021/12/04 08:58:54;;;;;;;24.33;19.62;;;;;;;6.66;45.84;99481.47;4377936;32;20655;-84
2021/12/04 09:01:26;;;;;;;25.12;18.35;;;;;;;6.62;46.33;99478.81;4384961;32;20706;-83
2021/12/04 09:04:08;;;;;;;24.67;18.77;;;;;;;6.55;46.61;99479.50;4376097;32;20359;-80
2021/12/04 09:06:36;;;;;;;28.62;19.12;;;;;;;6.42;47.22;99471.44;4382523;32;20277;-82
2021/12/04 09:09:05;;;;;;;26.55;18.95;;;;;;;6.45;47.71;99471.53;4382535;32;20292;-86
2021/12/04 09:11:41;;;;;;;27.27;20.45;;;;;;;6.47;47.73;99475.00;4377619;32;20273;-85
2021/12/04 09:14:09;;;;;;;27.75;19.73;;;;;;;6.64;47.35;99462.59;4368743;32;20291;-86
2021/12/04 09:16:36;;;;;;;;;;;;;;;6.49;47.81;99457.91;4368453;32;20274;-86
2021/12/04 09:19:04;;;;;;;;;;;;;;;7.32;46.17;99449.66;4377230;32;19974;-82
2021/12/04 09:21:31;;;;;;;;;;;;;;;7.55;45.06;99457.00;4367834;32;19978;-82
2021/12/04 09:24:05;;;;;;;;;;;;;;;7.78;44.99;99439.47;4367858;32;20077;-79
2021/12/04 09:26:51;;;;;;;;;;;;;;;7.91;44.50;99437.19;4375535;32;20721;-82
2021/12/04 10:18:44;;;;;;;;;;;;;;;7.43;43.36;99350.34;4373406;32;19994;-84
2021/12/04 10:34:36;;;;;;;;;;;;;;;6.80;45.60;99345.53;4384065;32;19982;-89
2021/12/04 10:37:10;;;;;;;;;;;;;;;7.03;43.83;99337.44;4377302;32;19992;-82
2021/12/04 10:39:37;;;;;;;;;;;;;;;6.91;44.73;99327.75;4384352;32;19994;-82
2021/12/04 10:42:11;;;;;;;;;;;;;;;6.89;43.81;99325.16;4375493;32;19989;-82
2021/12/04 10:44:40;;;;;;;;;;;;;;;7.07;44.50;99318.66;4371963;32;19990;-81
2021/12/04 10:47:11;;;;;;;;;;;;;;;6.77;42.74;99312.00;4362775;32;19982;-81
2021/12/04 10:52:30;;;;;;;;;;;;;;;7.15;43.44;99301.69;4362169;32;20355;-86
2021/12/04 10:58:51;;;;;;;;;;;;;;;7.56;42.32;99293.91;4355909;32;19997;-84
2021/12/04 11:03:40;;;;;;;;;;;;;;;6.62;42.72;99294.53;4363699;32;20340;-81
2021/12/04 11:25:57;;;;;;;;;;;;;;;6.57;41.38;99262.69;4342818;32;19999;-87
2021/12/04 11:36:57;;;;;;;;;;;;;;;6.42;42.20;99232.38;4340350;33;20057;-81
2021/12/04 11:42:18;;;;;;;;;;;;;;;7.04;40.93;99231.97;4344249;32;19987;-79
2021/12/04 11:44:50;;;;;;;;;;;;;;;6.92;40.19;99217.16;4347192;32;20006;-76
2021/12/04 11:47:17;;;;;;;;;;;;;;;7.07;40.28;99213.16;4346918;32;19978;-82
2021/12/04 11:49:47;;;;;;;;;;;;;;;6.96;40.70;99210.38;4345500;32;19994;-81
2021/12/04 11:52:18;;;;;;;;;;;;;;;6.97;40.73;99207.81;4343131;32;19975;-80
2021/12/04 11:54:53;;;;;;;;;;;;;;;6.95;41.00;99204.34;4340398;33;20721;-75
2021/12/04 11:57:38;;;;;;;;;;;;;;;7.11;40.56;99202.94;4341901;32;20387;-82
2021/12/04 12:00:09;;;;;;;;;;;;;;;7.41;40.01;99199.22;4346920;32;20030;-81
2021/12/04 12:02:37;;;;;;;;;;;;;;;7.06;40.05;99203.72;4347699;32;20463;-80
2021/12/04 12:05:04;;;;;;;;;;;;;;;7.24;39.73;99198.91;4346230;32;20243;-81
2021/12/04 12:07:31;;;;;;;;;;;;;;;6.77;39.41;99193.69;4374444;32;19990;-81
2021/12/04 12:10:04;;;;;;;;;;;;;;;6.88;38.46;99187.06;4381487;32;19985;-86
2021/12/04 12:12:34;;;;;;;;;;;;;;;6.81;39.89;99198.06;4381275;32;19985;-78
2021/12/04 12:15:04;;;;;;;;;;;;;;;6.81;39.53;99198.06;4380860;32;20018;-81
2021/12/04 12:17:33;;;;;;;;;;;;;;;6.72;40.16;99187.56;4379318;32;20004;-81
2021/12/04 12:20:00;;;;;;;;;;;;;;;6.83;40.17;99191.25;4365091;32;19996;-79
2021/12/04 12:22:40;;;;;;;;;;;;;;;7.07;40.08;99183.13;4351800;32;20371;-82
2021/12/04 12:25:53;;;;;;;;;;;;;;;7.32;39.62;99176.75;4359335;32;20037;-83
2021/12/04 12:34:16;;;;;;;;;;;;;;;7.02;39.27;99171.00;4339093;32;20688;-88
2021/12/04 12:36:43;;;;;;;;;;;;;;;7.21;38.89;99178.25;3753058;32;10000989;-86
2021/12/04 12:39:13;;;;;;;;;;;;;;;7.19;39.53;99174.78;4349200;32;20439;-85
2021/12/04 12:41:42;;;;;;;;;;;;;;;7.30;39.30;99167.25;4354914;32;20038;-86
2021/12/04 12:44:15;;;;;;;;;;;;;;;7.08;39.80;99161.69;4363421;32;20024;-85
2021/12/04 12:46:44;;;;;;;;;;;;;;;6.76;41.17;99158.50;4369855;32;20004;-86
2021/12/04 12:49:21;;;;;;;;;;;;;;;6.85;41.18;99158.69;4372799;32;19966;-86
2021/12/04 12:51:54;;;;;;;;;;;;;;;6.46;42.70;99157.03;4370921;32;20015;-80
2021/12/04 12:54:22;;;;;;;;;;;;;;;6.66;42.22;99159.16;4362542;32;20419;-80
2021/12/04 12:56:56;;;;;;;;;;;;;;;6.74;42.71;99155.06;4359386;32;19994;-80
2021/12/04 12:59:38;;;;;;;;;;;;;;;7.03;41.62;99152.19;4372171;32;19990;-89
2021/12/04 13:13:32;;;;;;;;;;;;;;;7.13;42.16;99149.81;4369363;32;19986;-80
2021/12/04 13:16:13;;;;;;;;;;;;;;;7.51;41.96;99146.19;4361964;32;20602;-85
2021/12/04 13:18:40;;;;;;;;;;;;;;;7.42;41.47;99147.75;4372098;32;19981;-85
2021/12/04 13:21:08;;;;;;;;;;;;;;;7.40;41.76;99144.31;4357275;32;19996;-81
2021/12/04 13:23:36;;;;;;;;;;;;;;;6.83;42.57;99142.38;4368701;32;20005;-94
2021/12/04 13:26:07;;;;;;;;;;;;;;;7.36;42.20;99142.50;4368153;32;20041;-88
2021/12/04 13:28:35;;;;;;;;;;;;;;;7.35;42.30;99145.91;4364103;32;19978;-89
2021/12/04 13:31:03;;;;;;;;;;;;;;;7.45;42.53;99147.81;4370949;32;20455;-87
2021/12/04 13:33:32;;;;;;;;;;;;;;;7.49;42.20;99142.72;4370529;32;19999;-82
2021/12/04 13:35:59;;;;;;;;;;;;;;;7.75;41.43;99136.25;4365126;32;20021;-89
2021/12/04 13:38:27;;;;;;;;;;;;;;;7.62;42.33;99126.63;4360789;32;20316;-88
2021/12/04 13:40:54;;;;;;;;;;;;;;;7.72;41.98;99128.50;4370343;32;19985;-89
2021/12/04 13:43:22;;;;;;;;;;;;;;;7.75;41.69;99125.09;4366443;32;20058;-87
2021/12/04 13:45:56;;;;;;;;;;;;;;;7.77;41.30;99116.56;4361385;32;19990;-84
2021/12/04 13:48:24;;;;;;;;;;;;;;;7.80;41.31;99108.87;4362070;32;20000;-86
2021/12/04 13:50:51;;;;;;;;;;;;;;;7.59;42.22;99114.53;4368959;32;20316;-83
2021/12/04 13:53:38;;;;;;;;;;;;;;;7.76;41.76;99121.69;4363746;32;20094;-84
2021/12/04 13:56:07;;;;;;;;;;;;;;;7.72;41.91;99105.31;4370611;32;20690;-83
2021/12/04 13:58:34;;;;;;;;;;;;;;;7.72;41.90;99091.56;4379998;32;21236;-79
2021/12/04 14:01:01;;;;;;;;;;;;;;;7.69;41.88;99097.56;4362627;32;20881;-82
2021/12/04 14:03:31;;;;;;;;;;;;;;;7.59;42.09;99087.94;4364156;32;19986;-86
2021/12/04 14:05:58;;;;;;;;;;;;;;;7.63;41.59;99063.97;4357256;32;20836;-81
2021/12/04 14:08:25;;;;;;;;;;;;;;;7.42;42.46;99049.91;4373997;32;19993;-86
2021/12/04 14:10:52;;;;;;;;;;;;;;;7.08;43.07;99047.63;4360986;32;20445;-79
2021/12/04 14:13:23;;;;;;;;;;;;;;;6.87;43.53;99042.97;4377688;32;19990;-81
2021/12/04 14:15:52;;;;;;;;;;;;;;;6.95;43.67;99037.09;4385963;32;20035;-81
2021/12/04 14:18:26;;;;;;;;;;;;;;;6.73;43.88;99047.84;4379721;32;20000;-82
2021/12/04 14:20:54;;;;;;;;;;;;;;;6.82;42.58;99045.44;4375574;32;20383;-81
2021/12/04 14:23:25;;;;;;;;;;;;;;;6.90;41.65;99041.31;4380988;32;20390;-84
2021/12/04 14:25:55;;;;;;;;;;;;;;;6.82;41.03;99034.28;4381781;32;19997;-81
2021/12/04 14:28:24;;;;;;;;;;;;;;;6.76;41.03;99040.19;4395367;32;20035;-78
2021/12/04 14:30:53;;;;;;;;;;;;;;;6.80;41.15;99061.72;4382078;32;20054;-80
2021/12/04 14:33:21;;;;;;;;;;;;;;;6.99;40.98;99049.22;4373765;32;20001;-81
2021/12/04 14:35:50;;;;;;;;;;;;;;;6.91;41.13;99050.75;4377164;32;20661;-81
2021/12/04 14:38:21;;;;;;;;;;;;;;;7.02;41.12;99055.22;4374123;32;19977;-91
2021/12/04 14:40:51;;;;;;;;;;;;;;;7.09;41.04;99055.37;4371578;32;20017;-81
2021/12/04 14:43:19;;;;;;;;;;;;;;;7.19;40.79;99053.81;4366370;32;20037;-83
2021/12/04 14:45:49;;;;;;;;;;;;;;;6.90;41.69;99054.19;4364643;32;20020;-78
2021/12/04 14:48:22;;;;;;;;;;;;;;;6.93;41.54;99043.94;4368395;32;20352;-78
2021/12/04 14:50:50;;;;;;;;;;;;;;;6.88;41.64;99043.00;4350579;32;20534;-80
2021/12/04 14:53:18;;;;;;;;;;;;;;;6.84;41.79;99038.63;4358841;32;20453;-78
2021/12/04 14:55:49;;;;;;;;;;;;;;;6.78;42.04;99043.66;4363235;32;20002;-81
2021/12/04 14:58:17;;;;;;;;;;;;;;;6.88;41.79;99040.41;4362992;32;20385;-80
2021/12/04 15:00:45;;;;;;;;;;;;;;;6.83;42.12;99034.34;4364507;32;20032;-82
2021/12/04 15:03:14;;;;;;;;;;;;;;;6.96;41.82;99043.16;4366426;32;20041;-77
2021/12/04 15:05:42;;;;;;;;;;;;;;;6.80;42.22;99042.00;4374741;32;20777;-77
2021/12/04 15:08:09;;;;;;;;;;;;;;;6.86;42.38;99036.97;4361360;32;20587;-81
2021/12/04 15:10:46;;;;;;;;;;;;;;;6.73;42.96;99045.28;4360561;32;19974;-77
2021/12/04 15:13:35;;;;;;;;;;;;;;;6.80;43.17;99047.16;4363551;32;19994;-78